Time;durP1;ratioP1;P1;durP2;ratioP2;P2;SDS_P1;SDS_P2;PMS_P1;PMS_P2;Temp;Humidity;BMP_temperature;BMP_pressure;BME280_temperature;BME280_humidity;BME280_pressure;Samples;Min_cycle;Max_cycle;Signal;HPM_P1;HPM_P2
2024/01/20 00:02:14;;;;;;;;;;;;;;;;;;;;;
2024/01/20 00:04:40;;;;;;;13.63;4.22;;;;;;;1.00;99.50;101118.13;4938415;28;20619;-82
2024/01/20 00:07:39;;;;;;;16.85;4.82;;;;;;;1.00;99.57;101118.13;5010429;28;20119;-82
2024/01/20 00:10:31;;;;;;;14.43;3.92;;;2.70;99.90;;;0.95;99.92;101108.63;4924492;28;20087;-83
2024/01/20 00:12:59;;;;;;;12.93;3.85;;;2.70;99.90;;;0.92;100.00;101111.22;4862379;29;20044;-84
2024/01/20 00:15:41;;;;;;;17.58;4.50;;;;;;;0.96;100.00;101124.19;4829689;29;20043;-84
2024/01/20 00:18:50;;;;;;;23.45;4.72;;;2.70;99.90;;;1.01;100.00;101130.22;4853713;28;20662;-83
2024/01/20 00:22:02;;;;;;;15.95;3.85;;;2.70;99.90;;;0.91;100.00;101123.34;4905036;29;20055;-83
2024/01/20 00:24:40;;;;;;;11.27;3.80;;;2.60;99.90;;;0.92;100.00;101129.38;4965892;23;20042;-84
2024/01/20 00:27:18;;;;;;;11.05;3.53;;;;;;;0.90;100.00;101128.53;5037215;28;20048;-84
2024/01/20 00:33:11;;;;;;;9.60;3.42;;;2.60;99.90;;;0.81;100.00;101119.88;4912068;28;20101;-83
2024/01/20 00:35:52;;;;;;;14.48;4.85;;;2.60;99.90;;;0.83;100.00;101122.47;4893650;28;20108;-84
2024/01/20 00:38:42;;;;;;;;;;;;;;;;;;;;;
2024/01/20 00:41:11;;;;;;;20.58;5.63;;;;;;;0.88;100.00;101123.31;4943701;28;20057;-83
2024/01/20 00:44:10;;;;;;;16.38;4.90;;;2.60;99.90;;;0.89;100.00;101127.66;4924689;28;20602;-83
2024/01/20 00:47:51;;;;;;;18.30;5.72;;;2.60;99.90;;;0.90;100.00;101126.78;4889491;28;20497;-84
2024/01/20 00:50:30;;;;;;;20.13;5.13;;;;;;;0.92;100.00;101131.97;4837355;29;20082;-84
2024/01/20 00:53:48;;;;;;;16.20;4.57;;;;;;;0.92;100.00;101139.75;4807043;29;20037;-83
2024/01/20 00:57:01;;;;;;;16.38;4.47;;;2.70;99.90;;;0.93;100.00;101139.75;4764890;29;20050;-84
2024/01/20 01:00:09;;;;;;;20.67;4.82;;;2.70;99.90;;;0.96;100.00;101141.47;4745173;29;20047;-84
2024/01/20 01:02:50;;;;;;;14.90;4.55;;;;;;;0.99;100.00;101144.94;4684786;30;20045;-83
2024/01/20 01:06:18;;;;;;;15.00;4.80;;;2.70;99.90;;;0.99;100.00;101137.16;4676254;30;20086;-84
2024/01/20 01:09:58;;;;;;;;;;;2.70;99.90;;;0.96;100.00;101152.72;4717061;29;20059;-82
2024/01/20 01:12:11;;;;;;;10.60;3.85;;;;;;;0.99;100.00;101163.09;4736322;29;20393;-83
2024/01/20 01:15:23;;;;;;;21.15;4.55;;;;;;;1.05;100.00;101166.53;4726445;29;20051;-83
2024/01/20 01:17:58;;;;;;;18.92;4.88;;;2.80;99.90;;;1.05;100.00;101163.97;4692959;29;20043;-83
2024/01/20 01:20:39;;;;;;;30.02;5.25;;;2.70;99.90;;;1.06;100.00;101158.78;4711583;30;20055;-83
2024/01/20 01:23:09;;;;;;;26.40;5.15;;;2.70;99.90;;;1.07;100.00;101154.44;4665845;30;21521;-83
2024/01/20 01:25:53;;;;;;;;;;;;;;;;;;;;;
2024/01/20 01:28:22;;;;;;;14.57;4.40;;;;;;;1.07;100.00;101170.00;4733151;29;20584;-82
2024/01/20 01:30:48;;;;;;;14.77;4.72;;;2.80;99.90;;;1.05;100.00;101161.34;4801385;29;20132;-81
2024/01/20 01:33:40;;;;;;;20.85;4.28;;;2.80;99.90;;;1.08;100.00;101170.00;4759864;29;20034;-82
2024/01/20 01:36:10;;;;;;;18.33;6.22;;;2.80;99.90;;;1.13;100.00;101177.78;4783536;29;20048;-82
2024/01/20 01:38:50;;;;;;;16.35;6.10;;;2.80;99.90;;;1.14;100.00;101176.91;4824468;29;20049;-83
2024/01/20 01:41:57;;;;;;;;;;;;;;;;;;;;;
2024/01/20 01:44:27;;;;;;;21.05;6.20;;;;;;;1.17;100.00;101180.38;4807692;29;20485;-83
2024/01/20 01:46:59;;;;;;;12.23;5.45;;;2.80;99.90;;;1.19;100.00;101180.38;4820658;29;20045;-82
2024/01/20 01:49:30;;;;;;;20.48;5.78;;;2.90;99.90;;;1.19;100.00;101185.56;4767248;29;20227;-82
2024/01/20 01:52:38;;;;;;;7.95;3.72;;;2.80;99.90;;;1.12;99.88;101178.63;4809355;29;20042;-82
2024/01/20 01:55:14;;;;;;;;;;;;;;;;;;;;;
2024/01/20 01:57:42;;;;;;;12.10;4.50;;;;;;;1.09;100.00;101178.66;4907183;28;21986;-82
2024/01/20 02:00:09;;;;;;;11.82;5.45;;;;;;;1.10;100.00;101182.97;4938074;28;20421;-82
2024/01/20 02:03:09;;;;;;;14.93;5.57;;;2.80;99.90;;;1.15;100.00;101187.28;4901271;28;20043;-82
2024/01/20 02:05:41;;;;;;;27.60;5.85;;;;;;;1.16;100.00;101188.16;4899570;28;20054;-83
2024/01/20 02:08:10;;;;;;;25.50;6.05;;;;;;;1.19;100.00;101188.16;4961509;28;20137;-82
2024/01/20 02:10:49;;;;;;;17.20;5.82;;;2.80;99.90;;;1.18;100.00;101204.56;4925050;28;20056;-82
2024/01/20 02:13:42;;;;;;;19.60;6.43;;;2.80;99.90;;;1.13;100.00;101201.13;4990418;22;20041;-83
2024/01/20 02:16:10;;;;;;;21.58;5.45;;;;;;;1.15;100.00;101215.81;4977587;28;20045;-83
2024/01/20 02:18:36;;;;;;;21.38;7.85;;;2.80;99.90;;;1.18;100.00;101220.16;4963238;28;20448;-82
2024/01/20 02:21:11;;;;;;;17.58;5.65;;;;;;;1.13;100.00;101216.69;4944299;28;20029;-82
2024/01/20 02:26:29;;;;;;;14.95;4.78;;;2.80;99.90;;;1.10;100.00;101209.78;4857882;28;20072;-82
2024/01/20 02:29:01;;;;;;;17.80;6.38;;;2.80;99.90;;;1.11;100.00;101218.41;4858049;28;20044;-82
2024/01/20 02:32:08;;;;;;;17.05;6.35;;;2.80;99.90;;;1.12;100.00;101210.63;4885725;28;20095;-83
2024/01/20 02:35:00;;;;;;;18.33;6.35;;;;;;;1.11;100.00;101219.28;4830522;29;20053;-82
2024/01/20 02:37:40;;;;;;;22.48;6.47;;;2.80;99.90;;;1.11;100.00;101213.25;4823175;29;20199;-82
2024/01/20 02:40:10;;;;;;;20.38;6.85;;;;;;;1.12;100.00;101217.53;4833771;29;20539;-83
2024/01/20 02:45:32;;;;;;;18.85;6.03;;;;;;;1.19;100.00;101217.56;4991220;23;20048;-82
2024/01/20 02:48:38;;;;;;;12.18;5.85;;;2.80;99.90;;;1.18;100.00;101233.13;4945124;28;20046;-84
2024/01/20 02:54:31;;;;;;;28.80;6.65;;;2.80;99.90;;;1.17;100.00;101228.81;4749885;29;20040;-83
2024/01/20 02:57:00;;;;;;;20.77;4.95;;;2.90;99.90;;;1.17;100.00;101224.47;4731415;29;20047;-82
2024/01/20 02:59:52;;;;;;;16.75;5.65;;;2.90;99.90;;;1.27;100.00;101238.28;4788033;29;20052;-83
2024/01/20 03:02:18;;;;;;;14.35;5.32;;;;;;;1.23;100.00;101240.03;4774279;29;20164;-84
2024/01/20 03:04:59;;;;;;;25.08;5.78;;;;;;;1.29;100.00;101246.94;4811774;29;20707;-83
2024/01/20 03:07:40;;;;;;;23.55;5.63;;;2.90;99.90;;;1.27;100.00;101234.84;4838684;29;20124;-83
2024/01/20 03:10:31;;;;;;;14.40;5.93;;;2.90;99.90;;;1.29;100.00;101239.16;4818298;29;20112;-83
2024/01/20 03:15:50;;;;;;;23.50;6.82;;;2.90;99.90;;;1.31;100.00;101232.25;4158690;26;20046;-83
2024/01/20 03:18:29;;;;;;;19.63;5.72;;;3.00;99.90;;;1.28;100.00;101236.59;4944452;28;20039;-83
2024/01/20 03:21:11;;;;;;;14.15;5.32;;;;;;;1.28;100.00;101234.00;4879036;28;20044;-83
2024/01/20 03:23:42;;;;;;;16.73;5.22;;;;;;;1.27;100.00;101235.69;4881728;28;20042;-84
2024/01/20 03:26:54;;;;;;;16.02;4.90;;;;;;;1.29;100.00;101239.16;4886301;28;20043;-83
2024/01/20 03:32:42;;;;;;;19.60;3.40;;;;;;;1.26;100.00;101240.91;4812632;29;20167;-83
2024/01/20 03:37:49;;;;;;;15.10;3.25;;;;;;;1.28;100.00;101242.63;4971885;23;20039;-83
2024/01/20 03:40:21;;;;;;;20.52;5.55;;;3.00;99.90;;;1.34;100.00;101246.94;4968224;28;20065;-84
2024/01/20 03:42:50;;;;;;;14.63;4.20;;;;;;;1.34;100.00;101246.94;4885528;28;20038;-83
2024/01/20 03:45:43;;;;;;;18.05;4.85;;;;;;;1.32;100.00;101252.16;4857834;29;20139;-83
2024/01/20 03:48:12;;;;;;;19.73;5.55;;;;;;;1.32;99.93;101253.84;4880212;28;20077;-84
2024/01/20 03:50:50;;;;;;;13.95;3.60;;;3.00;99.90;;;1.29;100.00;101254.72;4889311;28;20039;-84
2024/01/20 03:53:42;;;;;;;19.02;5.32;;;3.00;99.90;;;1.31;99.83;101260.78;4955248;23;20058;-84
2024/01/20 03:57:09;;;;;;;19.58;5.07;;;3.00;99.90;;;1.28;99.95;101252.16;4939162;28;20038;-83
2024/01/20 03:59:41;;;;;;;16.48;4.63;;;;;;;1.26;99.67;101257.34;4895455;29;20111;-83
2024/01/20 04:02:31;;;;;;;16.33;5.60;;;3.00;99.90;;;1.28;100.00;101257.34;4847757;28;20124;-84
2024/01/20 04:05:00;;;;;;;7.88;3.58;;;2.90;99.90;;;1.28;100.00;101259.94;4822402;29;20590;-83
2024/01/20 04:07:42;;;;;;;11.40;5.13;;;3.00;99.90;;;1.32;99.83;101257.34;4823149;29;20044;-83
2024/01/20 04:13:10;;;;;;;21.95;5.38;;;3.00;99.90;;;1.30;99.47;101266.84;4895524;23;20100;-83
2024/01/20 04:16:11;;;;;;;14.45;4.20;;;3.00;99.90;;;1.33;99.23;101271.16;4926338;28;20061;-84
2024/01/20 04:18:53;;;;;;;15.13;4.55;;;3.00;99.90;;;1.32;99.35;101275.50;4910026;28;20036;-84
2024/01/20 04:21:28;;;;;;;20.80;5.28;;;;;;;1.31;99.21;101281.53;4864432;28;20124;-82
2024/01/20 04:24:12;;;;;;;11.90;4.75;;;;;;;1.31;99.30;101284.13;4885856;28;20559;-83
2024/01/20 04:26:51;;;;;;;17.20;4.65;;;3.00;99.90;;;1.31;99.11;101281.53;4870122;28;20068;-83
2024/01/20 04:29:59;;;;;;;;;;;;;;;;;;;;;
2024/01/20 04:32:41;;;;;;;25.80;5.78;;;;;;;1.33;98.93;101292.78;4854618;28;20984;-83
2024/01/20 04:35:18;;;;;;;15.90;4.95;;;;;;;1.31;99.05;101294.50;5031913;23;20065;-83
2024/01/20 04:38:02;;;;;;;26.35;6.30;;;3.00;99.90;;;1.34;98.61;101294.53;4918915;28;20072;-82
2024/01/20 04:40:40;;;;;;;20.73;5.95;;;3.00;99.90;;;1.34;99.15;101289.34;4892169;28;20074;-83
2024/01/20 04:43:09;;;;;;;7.72;3.08;;;;;;;1.29;99.01;101288.44;4939309;28;20035;-84
2024/01/20 04:45:54;;;;;;;;;;;;;;;;;;;;;
2024/01/20 04:48:23;;;;;;;16.60;4.20;;;;;;;1.30;98.82;101297.97;4946520;28;20031;-83
2024/01/20 04:50:49;;;;;;;28.50;5.45;;;3.00;99.90;;;1.33;99.06;101297.97;4913395;28;20050;-84
2024/01/20 04:53:23;;;;;;;21.15;5.90;;;3.00;99.90;;;1.35;98.89;101300.56;4885758;23;20048;-83
2024/01/20 04:55:51;;;;;;;14.60;4.93;;;3.00;99.90;;;1.35;98.83;101296.25;4956307;28;20615;-84
2024/01/20 04:58:20;;;;;;;19.13;5.18;;;;;;;1.36;98.59;101303.19;4952957;28;20981;-83
2024/01/20 05:01:25;;;;;;;24.77;5.88;;;3.00;99.90;;;1.38;98.53;101296.25;4969286;28;20148;-82
2024/01/20 05:03:51;;;;;;;23.95;6.05;;;3.00;99.90;;;1.39;98.34;101310.97;4853967;29;20131;-83
2024/01/20 05:06:33;;;;;;;16.95;5.68;;;;;;;1.40;97.98;101304.03;4857956;29;20036;-83
2024/01/20 05:08:59;;;;;;;19.88;5.60;;;3.00;99.90;;;1.39;97.76;101297.97;4819473;29;20055;-84
2024/01/20 05:11:32;;;;;;;13.48;5.53;;;;;;;1.36;97.87;101304.88;4785688;29;20609;-83
2024/01/20 05:14:01;;;;;;;15.60;5.82;;;3.00;99.90;;;1.37;97.29;101315.28;4913706;23;20042;-82
2024/01/20 05:16:38;;;;;;;12.40;5.00;;;3.00;99.90;;;1.38;98.06;101305.75;4905850;28;21683;-83
2024/01/20 05:19:03;;;;;;;21.55;6.57;;;3.00;99.90;;;1.32;97.81;101295.38;4942743;28;21205;-83
2024/01/20 05:21:32;;;;;;;14.90;5.13;;;3.00;99.90;;;1.31;97.53;101297.09;4924078;28;20046;-84
2024/01/20 05:24:57;;;;;;;21.20;5.95;;;3.00;99.90;;;1.27;97.58;101302.28;4887422;28;20390;-84
2024/01/20 05:27:51;;;;;;;22.70;6.28;;;2.90;99.90;;;1.23;97.82;101297.13;4894181;29;20044;-83
2024/01/20 05:30:19;;;;;;;22.08;7.10;;;2.90;99.90;;;1.29;97.92;101304.03;4798826;29;20049;-84
2024/01/20 05:35:21;;;;;;;17.17;6.07;;;2.90;99.90;;;1.28;97.91;101301.44;4893447;23;20053;-85
2024/01/20 05:41:30;;;;;;;23.52;6.78;;;2.90;99.90;;;1.21;98.02;101296.25;4750921;29;20116;-84
2024/01/20 05:44:11;;;;;;;15.02;5.45;;;;;;;1.18;98.08;101309.19;4933400;23;20042;-85
2024/01/20 05:50:31;;;;;;;22.00;7.38;;;2.90;99.90;;;1.20;98.07;101304.03;4853220;29;20027;-84
2024/01/20 05:55:51;;;;;;;29.67;6.13;;;2.90;99.90;;;1.20;98.56;101304.03;4948775;28;20050;-83
2024/01/20 05:58:19;;;;;;;25.10;7.43;;;2.90;99.90;;;1.23;98.51;101316.97;4931199;28;20031;-84
2024/01/20 06:01:12;;;;;;;17.30;6.85;;;;;;;1.23;98.23;101320.47;4937075;28;20079;-83
2024/01/20 06:03:41;;;;;;;23.85;7.35;;;;;;;1.18;98.46;101318.72;4943613;28;20856;-84
2024/01/20 06:06:33;;;;;;;23.13;7.15;;;;;;;1.21;98.43;101326.53;4922156;28;20586;-83
2024/01/20 06:09:10;;;;;;;16.63;5.40;;;;;;;1.22;98.80;101320.47;4854665;28;20036;-84
2024/01/20 06:11:51;;;;;;;26.33;7.80;;;2.90;99.90;;;1.24;98.37;101323.91;4871036;28;20036;-84
2024/01/20 06:14:43;;;;;;;;;;;;;;;;;;;;;
2024/01/20 06:17:32;;;;;;;25.95;6.32;;;2.90;99.90;;;1.22;98.61;101323.06;4960543;28;20075;-85
2024/01/20 06:20:14;;;;;;;17.92;6.75;;;2.50;99.90;;;1.19;98.38;101328.25;4870486;28;20591;-85
2024/01/20 06:26:04;;;;;;;28.02;9.00;;;2.90;99.90;;;1.17;98.54;101329.97;4970977;23;20050;-84
2024/01/20 06:29:12;;;;;;;23.30;8.60;;;2.90;99.90;;;1.17;98.67;101343.78;4864681;28;20534;-84
2024/01/20 06:32:39;;;;;;;25.50;7.80;;;2.80;99.90;;;1.14;98.79;101345.50;4814754;29;20036;-85
2024/01/20 06:38:32;;;;;;;25.05;8.38;;;;;;;1.16;98.63;101344.66;4977313;28;20606;-82
2024/01/20 06:45:33;;;;;;;24.17;6.13;;;2.80;99.90;;;1.11;98.33;101353.31;4789038;29;20545;-85
2024/01/20 06:49:23;;;;;;;14.93;5.53;;;2.80;99.90;;;1.11;98.98;101350.69;4715775;29;20052;-84
2024/01/20 06:57:58;;;;;;;22.63;8.30;;;;;;;1.11;99.15;101361.09;4901565;28;20520;-83
2024/01/20 07:00:54;;;;;;;27.25;9.00;;;;;;;1.13;99.16;101367.13;4878714;28;20079;-83
2024/01/20 07:03:23;;;;;;;22.83;9.30;;;2.80;99.90;;;1.09;99.39;101371.44;4894596;28;20057;-83
2024/01/20 07:06:00;;;;;;;28.45;9.68;;;2.80;99.90;;;1.12;99.60;101374.03;4884574;28;20056;-86
2024/01/20 07:08:54;;;;;;;;;;;;;;;;;;;;;
2024/01/20 07:11:32;;;;;;;20.23;7.82;;;;;;;1.09;99.71;101381.81;4885763;28;20082;-83
2024/01/20 07:14:03;;;;;;;28.00;9.98;;;2.80;99.90;;;1.15;99.80;101386.16;4919815;23;20050;-84
2024/01/20 07:16:40;;;;;;;31.52;10.02;;;2.80;99.90;;;1.14;99.59;101392.19;4935262;28;20049;-83
2024/01/20 07:19:33;;;;;;;24.52;9.50;;;;;;;1.13;99.73;101390.47;4967835;28;20045;-83
2024/01/20 07:22:21;;;;;;;31.63;10.00;;;2.70;99.90;;;1.14;99.77;101394.78;4895096;28;20063;-85
2024/01/20 07:25:12;;;;;;;27.63;8.35;;;2.80;99.90;;;1.08;99.72;101384.41;4843072;29;20043;-84
2024/01/20 07:31:02;;;;;;;28.38;10.43;;;;;;;1.06;99.82;101402.56;4835436;29;20038;-83
2024/01/20 07:34:00;;;;;;;20.63;8.68;;;;;;;1.11;100.00;101405.19;4841114;29;20102;-84
2024/01/20 07:37:11;;;;;;;;;;;;;;;;;;;;;
2024/01/20 07:41:05;;;;;;;;;;;;;;;;;;;;;
2024/01/20 08:03:14;;;;;;;;;;;;;;;;;;;;;
2024/01/20 08:05:45;;;;;;;31.65;10.18;;;;;;;0.96;100.00;101435.38;4949667;28;21111;-84
2024/01/20 08:11:40;;;;;;;19.73;6.85;;;;;;;1.03;100.00;101452.69;4958529;28;20054;-84
2024/01/20 08:17:58;;;;;;;;;;;;;;;;;;;;;
2024/01/20 08:20:20;;;;;;;23.63;9.20;;;;;;;1.09;100.00;101469.16;4926631;28;20435;-84
2024/01/20 08:23:06;;;;;;;19.90;8.63;;;;;;;1.13;100.00;101468.31;4906941;28;20053;-84
2024/01/20 08:25:32;;;;;;;29.85;9.52;;;2.80;99.90;;;1.19;100.00;101474.38;4893281;28;20511;-84
2024/01/20 08:28:05;;;;;;;31.17;10.07;;;2.90;99.90;;;1.23;100.00;101483.03;4874271;28;20047;-84
2024/01/20 08:30:31;;;;;;;35.20;10.00;;;2.90;99.90;;;1.21;100.00;101480.44;4855637;28;20047;-84
2024/01/20 08:33:33;;;;;;;27.70;11.18;;;;;;;1.25;99.93;101489.09;4875461;28;20054;-88
2024/01/20 08:36:10;;;;;;;26.35;9.40;;;2.90;99.90;;;1.29;99.91;101487.38;4934860;28;20036;-84
2024/01/20 08:38:43;;;;;;;18.98;7.97;;;2.90;99.90;;;1.30;99.72;101490.00;4884933;28;20762;-83
2024/01/20 08:41:10;;;;;;;30.05;8.38;;;3.00;99.90;;;1.30;99.45;101483.94;4903082;28;20046;-85
2024/01/20 08:43:51;;;;;;;27.77;9.82;;;3.00;99.90;;;1.37;99.15;101499.53;4940156;28;20117;-84
2024/01/20 08:46:17;;;;;;;25.05;9.30;;;3.00;99.90;;;1.39;99.04;101500.41;4888735;28;20045;-84
2024/01/20 08:48:44;;;;;;;29.95;8.95;;;3.10;99.90;;;1.40;98.76;101502.16;4897173;28;20062;-82
2024/01/20 08:51:15;;;;;;;31.65;10.38;;;3.10;99.90;;;1.45;98.70;101515.13;4939825;28;20152;-82
2024/01/20 08:53:41;;;;;;;31.30;9.98;;;3.10;99.90;;;1.48;98.75;101509.94;4884279;28;20046;-83
2024/01/20 08:56:09;;;;;;;18.98;7.88;;;3.10;99.90;;;1.48;98.26;101519.47;4936959;28;20149;-84
2024/01/20 08:58:49;;;;;;;22.00;8.38;;;3.10;99.90;;;1.51;98.27;101514.25;4942058;28;20447;-84
2024/01/20 09:01:17;;;;;;;21.02;7.30;;;3.10;99.90;;;1.46;98.48;101524.63;4947229;28;20127;-84
2024/01/20 09:04:06;;;;;;;27.15;9.52;;;3.20;99.90;;;1.53;98.73;101531.56;4953751;28;20050;-83
2024/01/20 09:06:37;;;;;;;26.60;8.30;;;3.20;99.90;;;1.56;98.29;101525.56;4842106;29;20076;-83
2024/01/20 09:09:12;;;;;;;22.20;8.90;;;3.20;99.90;;;1.62;98.31;101538.53;4875939;29;20397;-83
2024/01/20 09:14:30;;;;;;;32.10;10.05;;;3.30;99.90;;;1.62;98.29;101547.22;4913697;29;20095;-83
2024/01/20 09:16:58;;;;;;;25.83;9.18;;;3.20;99.90;;;1.60;97.75;101538.53;4894956;29;20044;-83
2024/01/20 09:19:25;;;;;;;27.15;10.48;;;3.30;99.90;;;1.66;97.64;101545.47;4878019;29;20417;-82
2024/01/20 09:22:00;;;;;;;30.80;10.50;;;3.30;99.90;;;1.72;98.10;101550.69;4876634;29;20032;-83
2024/01/20 09:24:52;;;;;;;26.73;9.68;;;3.30;99.90;;;1.70;97.40;101551.53;4881214;29;20119;-84
2024/01/20 09:27:19;;;;;;;31.58;10.15;;;3.30;99.90;;;1.72;97.21;101566.25;4912801;29;20824;-84
2024/01/20 09:29:45;;;;;;;25.98;9.45;;;3.30;99.90;;;1.70;97.22;101567.97;4884403;29;20044;-83
2024/01/20 09:32:11;;;;;;;27.52;9.32;;;3.30;99.90;;;1.73;96.86;101564.53;4889712;29;20028;-83
2024/01/20 09:34:49;;;;;;;30.17;10.07;;;3.30;99.90;;;1.72;96.77;101566.25;4894792;29;20513;-83
2024/01/20 09:37:26;;;;;;;32.10;9.73;;;3.40;99.90;;;1.77;96.79;101571.47;4891346;29;20077;-83
2024/01/20 09:39:52;;;;;;;26.33;9.48;;;3.40;99.90;;;1.84;96.68;101587.09;4876199;29;20049;-83
2024/01/20 09:42:18;;;;;;;24.67;8.85;;;3.40;99.90;;;1.81;96.62;101587.09;4920234;29;20032;-84
2024/01/20 09:45:12;;;;;;;28.88;9.18;;;3.40;99.90;;;1.79;96.07;101572.34;4932553;28;20049;-84
2024/01/20 09:47:38;;;;;;;30.48;9.68;;;3.40;99.90;;;1.78;97.17;101584.47;4945388;28;20035;-84
2024/01/20 09:50:04;;;;;;;18.77;4.47;;;3.40;99.90;;;1.70;96.98;101583.56;4952730;28;20130;-84
2024/01/20 09:52:57;;;;;;;27.13;7.68;;;3.40;99.90;;;1.74;97.06;101590.50;4940888;28;20838;-84
2024/01/20 09:55:32;;;;;;;27.95;8.38;;;3.40;99.90;;;1.72;97.12;101591.38;4946505;28;20042;-83
2024/01/20 09:58:03;;;;;;;33.70;8.98;;;3.40;99.90;;;1.78;97.51;101597.44;4949108;28;20098;-85
2024/01/20 10:00:29;;;;;;;26.42;8.65;;;3.40;99.90;;;1.79;97.53;101604.41;4959730;28;20042;-84
2024/01/20 10:03:17;;;;;;;31.23;9.43;;;3.50;99.90;;;1.89;97.55;101604.41;4926564;28;20430;-83
2024/01/20 10:05:43;;;;;;;26.15;7.88;;;3.50;99.90;;;1.92;97.08;101607.00;4947089;28;20077;-83
2024/01/20 10:08:09;;;;;;;31.77;9.85;;;3.60;99.90;;;1.96;97.04;101598.38;4939695;28;20070;-83
2024/01/20 10:10:35;;;;;;;23.85;8.27;;;3.60;99.90;;;2.07;96.40;101620.03;4909234;28;20053;-84
2024/01/20 10:13:02;;;;;;;24.17;7.93;;;3.60;99.90;;;2.03;96.35;101624.38;4934676;28;20045;-84
2024/01/20 10:15:39;;;;;;;30.63;9.35;;;3.70;99.90;;;2.10;95.85;101640.84;4964656;28;20043;-84
2024/01/20 10:18:11;;;;;;;20.52;8.73;;;3.70;99.90;;;2.08;95.24;101632.19;4912131;28;20038;-84
2024/01/20 10:20:43;;;;;;;29.25;12.60;;;3.70;99.90;;;2.10;95.53;101648.66;4945682;28;20038;-84
2024/01/20 10:23:09;;;;;;;37.55;11.98;;;3.70;99.90;;;2.07;94.90;101643.41;4939548;28;20736;-83
2024/01/20 10:25:42;;;;;;;29.90;12.57;;;3.70;99.90;;;2.10;95.05;101647.78;4931289;28;20050;-83
2024/01/20 10:28:09;;;;;;;31.80;11.88;;;3.70;99.90;;;2.10;95.19;101650.38;4954904;28;20578;-84
2024/01/20 10:30:47;;;;;;;32.35;11.50;;;;;;;2.05;94.42;101655.53;4915764;28;20043;-84
2024/01/20 10:33:13;;;;;;;30.70;11.20;;;3.70;99.90;;;2.05;94.35;101652.94;4986961;28;20049;-83
2024/01/20 10:35:39;;;;;;;39.35;14.05;;;3.70;99.90;;;2.11;94.63;101647.75;4979925;28;20450;-83
2024/01/20 10:38:14;;;;;;;33.75;12.82;;;3.70;99.90;;;2.12;94.86;101652.13;4961897;28;20123;-83
2024/01/20 10:40:45;;;;;;;35.10;13.90;;;3.70;99.90;;;2.14;94.69;101641.72;4957843;28;20038;-83
2024/01/20 10:44:03;;;;;;;33.53;12.93;;;3.70;99.90;;;2.18;94.73;101657.34;4929881;28;20704;-82
2024/01/20 10:46:49;;;;;;;33.15;11.88;;;3.70;99.90;;;2.19;94.21;101656.47;4923781;28;20081;-83
2024/01/20 10:49:31;;;;;;;25.00;11.63;;;3.80;99.90;;;2.23;94.04;101657.34;4966134;28;20084;-83
2024/01/20 10:52:21;;;;;;;27.52;12.02;;;3.80;99.90;;;2.23;94.66;101659.94;4922770;28;20030;-83
2024/01/20 10:54:50;;;;;;;29.50;11.90;;;3.90;99.90;;;2.29;94.00;101674.66;4865406;28;20028;-82
2024/01/20 10:57:29;;;;;;;35.97;11.48;;;;;;;2.35;93.62;101664.28;4911543;28;20538;-83
2024/01/20 11:00:07;;;;;;;31.02;12.40;;;;;;;2.37;93.24;101665.16;4909585;28;20590;-82
2024/01/20 11:02:34;;;;;;;29.13;11.15;;;3.90;99.90;;;2.32;93.43;101657.34;4923396;28;20045;-82
2024/01/20 11:05:00;;;;;;;24.58;10.32;;;4.00;99.90;;;2.40;92.79;101666.03;4872913;28;20045;-83
2024/01/20 11:07:38;;;;;;;25.60;12.13;;;4.00;99.90;;;2.44;92.96;101665.19;4922764;28;20296;-83
2024/01/20 11:10:29;;;;;;;27.63;10.35;;;4.10;99.90;;;2.44;92.58;101664.31;4946446;28;20525;-82
2024/01/20 11:13:15;;;;;;;31.17;10.23;;;4.10;99.90;;;2.58;92.23;101677.34;4859428;29;20492;-83
2024/01/20 11:16:04;;;;;;;31.27;11.37;;;4.10;99.90;;;2.54;92.21;101673.84;4855402;28;20032;-82
2024/01/20 11:18:30;;;;;;;26.88;11.82;;;4.10;99.90;;;2.59;92.05;101669.56;4871046;29;20279;-83
2024/01/20 11:21:23;;;;;;;29.13;9.85;;;;;;;2.58;92.42;101673.00;4841348;29;20594;-83
2024/01/20 11:24:38;;;;;;;26.40;9.93;;;4.20;99.90;;;2.62;91.97;101679.94;4850948;28;20055;-83
2024/01/20 11:27:05;;;;;;;37.33;11.23;;;;;;;2.64;91.52;101677.34;4888521;28;20035;-82
2024/01/20 11:29:42;;;;;;;28.35;10.48;;;4.20;99.90;;;2.70;91.97;101676.47;4854491;28;20075;-82
2024/01/20 11:32:11;;;;;;;33.17;10.23;;;4.40;99.90;;;2.72;91.77;101683.44;4896131;28;20039;-83
2024/01/20 11:34:48;;;;;;;28.02;10.50;;;4.30;99.90;;;2.75;91.32;101682.56;4861644;28;20036;-82
2024/01/20 11:37:15;;;;;;;29.27;10.77;;;4.40;99.90;;;2.88;91.68;101695.56;4861692;28;20079;-82
2024/01/20 11:39:41;;;;;;;29.45;10.43;;;4.40;99.90;;;2.87;91.19;101696.47;4856479;28;20083;-82
2024/01/20 11:42:19;;;;;;;30.23;11.10;;;4.40;99.90;;;2.91;90.84;101696.44;4861810;28;20126;-82
2024/01/20 11:44:52;;;;;;;23.17;10.30;;;4.50;99.90;;;3.01;90.36;101711.19;4862964;29;20035;-83
2024/01/20 11:47:21;;;;;;;27.90;10.48;;;4.50;99.90;;;2.95;90.19;101712.06;4852713;28;20042;-83
2024/01/20 11:49:49;;;;;;;33.85;12.00;;;4.50;99.90;;;2.99;90.17;101711.19;4904293;28;20050;-84
2024/01/20 11:52:25;;;;;;;36.35;11.25;;;4.50;99.90;;;2.92;89.81;101709.47;4899939;28;20803;-83
2024/01/20 11:54:52;;;;;;;32.38;10.52;;;4.50;99.90;;;2.91;89.33;101720.72;4927035;28;20045;-82
2024/01/20 11:57:31;;;;;;;32.25;10.38;;;4.50;99.90;;;2.84;89.45;101714.66;4949967;28;20112;-82
2024/01/20 12:00:06;;;;;;;36.08;10.88;;;4.50;99.90;;;2.84;89.89;101713.78;4902959;28;20066;-83
2024/01/20 12:02:33;;;;;;;36.33;11.37;;;4.40;99.90;;;2.80;89.98;101717.25;4885633;28;20065;-82
2024/01/20 12:04:59;;;;;;;28.42;10.85;;;4.40;99.90;;;2.78;89.85;101718.97;4912721;28;20043;-84
2024/01/20 12:07:32;;;;;;;28.83;11.38;;;4.40;99.90;;;2.69;90.08;101716.38;4922090;28;20033;-82
2024/01/20 12:10:02;;;;;;;30.90;10.27;;;4.30;99.90;;;2.66;90.07;101715.50;4978321;28;20105;-83
2024/01/20 12:12:38;;;;;;;;;;;;;;;;;;;;;
2024/01/20 12:15:06;;;;;;;;;;;4.30;99.90;;;2.72;90.24;101724.16;4994106;28;20113;-82
2024/01/20 12:17:32;;;;;;;29.20;12.00;;;4.30;99.90;;;2.72;89.93;101725.06;4983648;28;19959;-83
2024/01/20 12:20:07;;;;;;;36.42;12.02;;;4.30;99.90;;;2.69;89.99;101731.97;4954310;28;20033;-83
2024/01/20 12:22:33;;;;;;;35.10;12.55;;;4.30;99.90;;;2.68;90.28;101731.13;4952304;28;20046;-83
2024/01/20 12:24:59;;;;;;;34.40;11.52;;;4.30;99.90;;;2.64;90.09;101725.03;4965619;28;20037;-83
2024/01/20 12:27:44;;;;;;;;;;;;;;;;;;;;;
2024/01/20 12:30:14;;;;;;;38.43;12.07;;;4.30;99.90;;;2.66;90.28;101733.69;4907817;28;21640;-83
2024/01/20 12:32:40;;;;;;;28.60;11.02;;;;;;;2.62;90.75;101733.69;4899534;28;20493;-84
2024/01/20 12:35:09;;;;;;;37.38;15.57;;;4.30;99.90;;;2.73;90.49;101736.31;4902833;28;20043;-82
2024/01/20 12:37:42;;;;;;;34.95;12.80;;;4.30;99.90;;;2.69;90.06;101735.44;4930689;28;21494;-83
2024/01/20 12:40:09;;;;;;;36.45;13.27;;;4.30;99.90;;;2.73;89.99;101749.31;4974218;28;20042;-83
2024/01/20 12:42:49;;;;;;;31.95;12.05;;;4.30;99.90;;;2.67;90.46;101753.63;4946413;28;20037;-82
2024/01/20 12:45:24;;;;;;;39.55;12.85;;;;;;;2.75;90.67;101751.06;4975422;28;20044;-83
2024/01/20 12:47:50;;;;;;;37.25;11.00;;;4.30;99.90;;;2.76;89.74;101754.53;4948185;28;20036;-82
2024/01/20 12:50:16;;;;;;;31.05;11.27;;;;;;;2.77;90.19;101758.88;4952564;28;20041;-83
2024/01/20 12:52:42;;;;;;;28.23;11.05;;;4.30;99.90;;;2.72;90.18;101756.25;4942076;28;20046;-82
2024/01/20 12:55:16;;;;;;;34.35;11.40;;;4.40;99.90;;;2.77;90.32;101757.13;4954246;28;20030;-83
2024/01/20 12:57:41;;;;;;;29.73;11.02;;;4.30;99.90;;;2.79;90.20;101759.75;4927512;28;20473;-81
2024/01/20 13:00:09;;;;;;;33.15;10.52;;;4.30;99.90;;;2.80;90.00;101764.06;4953179;28;20035;-84
2024/01/20 13:02:35;;;;;;;29.33;9.68;;;4.30;99.90;;;2.73;90.18;101759.72;4937571;28;21323;-82
2024/01/20 13:05:01;;;;;;;29.10;10.48;;;4.30;99.90;;;2.73;90.12;101759.72;4978422;28;20093;-83
2024/01/20 13:07:33;;;;;;;32.70;10.40;;;4.30;99.90;;;2.74;90.14;101764.06;4919307;28;22239;-83
2024/01/20 13:10:01;;;;;;;33.75;11.18;;;4.30;99.90;;;2.71;90.06;101766.66;4907433;28;21119;-81
2024/01/20 13:12:27;;;;;;;28.23;10.05;;;4.30;99.90;;;2.71;90.10;101772.72;4923402;28;20053;-82